Aviation Digital Data Service (ADDS)

Output produced by METARs form (0109 UTC 24 May 2022)
found at http://www.aviationweather.gov/metar/data/
 
ORMM 240000Z 29010KT 1800 DU NSC 25/09 Q1004 NOSIG
TAF ORMM 232200Z 2400/2424 30015KT 2000 BLDU NSC 
     TEMPO 2404/2409 0800 DS VV/// 
     BECMG 2410/2412 3000 NSC